Tropical Cyclones
[Index]
Main Index Home Page Stock Weather Photos Extreme Storms Discussion Storm News and Storm Chasing Reports Tropical Cyclones / Hurricanes / Typhoons Weather Data and Links Wild Fires / Bushfires Weather Observation Techniques Weather Picture Catalogue Tornado Pictures and Reports Stock Video Footage and DVDs for sale
Season 2001-2002 Tropical Cyclone 200203 Track Map
Season 2001-2002 Summaries: [BoM-AU] [JTWC-AU] [JTWC-SIO] [JTWC-SPAC] [JTWC-SH]
<<- Previous TC | JTWC 2001-2002 Season | Next TC ->>

click for intensity scale information  Lat/long Grid: Show Hide

 Date Labels: Show Hide

Joint Typhoon Warning Centre Cyclone Data

Name: 200203

16 Nov 2001 00:00 UTC to 23 Nov 2001 00:00 UTC

    date/time    lat    long     hPa   cat  kts
2001-11-16 00   10.5   145.5    1006         15          
2001-11-16 06   10.2   144.5    1006         15          
2001-11-16 12    9.8   143.7    1006         15          
2001-11-16 18    9.3   143.1    1004         20          
2001-11-17 00    8.8   142.6    1002         25          
2001-11-17 06    8.6   141.9    1004         25          
2001-11-17 12    8.6   140.7    1004         25          
2001-11-17 18    8.5   140.3    1002         25          
2001-11-18 00    7.7   139.7    1002         25          
2001-11-18 06    7.2   139.0    1002         25          
2001-11-18 12    6.9   138.3    1002         25          
2001-11-18 18    6.6   137.8    1002         25          
2001-11-19 00    6.6   137.4    1002         25          
2001-11-19 06    6.6   136.9    1002         25          
2001-11-19 12    6.6   136.1    1002         25          
2001-11-19 18    6.5   135.2    1002         25          
2001-11-20 00    6.4   134.3    1002         25          
2001-11-20 06    6.5   133.2    1002         25          
2001-11-20 12    6.4   132.4    1002         25          
2001-11-20 18    6.4   131.3    1002         25          
2001-11-21 00    6.5   130.3    1001         30          
2001-11-21 06    6.7   129.3     997         35          
2001-11-21 12    6.7   128.4     997         35          
2001-11-21 18    6.6   127.6     997         35          
2001-11-22 00    6.5   127.0     997         35          
2001-11-22 06    6.3   126.5     997         35          
2001-11-22 12    6.1   126.2     997         35          
2001-11-22 18    6.0   126.0     997         35          
2001-11-23 00    5.9   125.9     997         35          
Winds are 1-min average.

Tropical cyclone tracks developed by Michael Bath using data from the Joint Typhoon Warning Centre Best Tracks and Google Maps.


[Australian Severe Weather index] [Copyright Notice] [Email Contacts] [Search This Site] [Privacy Policy]
Document: tropical_cyclone_200203.htm Updated: 28 June 2017